Flight Track Log - Related Links

Times and Time Zones

All times are in EDT time to prevent confusion due to time zone crossing. See the N20CJ flight status page for this flight to view local times or setup timezone preferences in your user account.

Time Position Orientation Groundspeed Altitude Reporting Facility
EDT Latitude Longitude Course Direction KTS MPH feet Rate Location/Type
Tue 03:58:56 PM 32.1008 -110.9556 295° West 100 115 3,600  Level Albuquerque Center
Tue 04:00:00 PM 32.1194 -110.9916 292° West  Level FlightAware Approximate
Tue 04:00:32 PM 32.1222 -111.0103 292° West 110 127 4,200  Level Albuquerque Center
Tue 04:01:09 PM 32.1261 -111.0294 283° West 106 122 4,500 450 Climbing Albuquerque Center
Tue 04:01:52 PM 32.1319 -111.0492 289° West 108 124 4,800 404 Climbing Albuquerque Center
Tue 04:02:53 PM 32.1419 -111.0819 290° West 108 124 5,200 293 Climbing Albuquerque Center
Tue 04:03:55 PM 32.1547 -111.1133 296° West 108 124 5,400 387 Climbing Albuquerque Center
Tue 04:04:57 PM 32.1708 -111.1447 301° West 110 127 6,000 488 Climbing Albuquerque Center
Tue 04:05:58 PM 32.1794 -111.1850 284° West 107 123 6,400 341 Climbing Albuquerque Center
Tue 04:07:00 PM 32.1867 -111.2208 283° West 108 124 6,700 339 Climbing Albuquerque Center
Tue 04:08:02 PM 32.1942 -111.2569 284° West 110 127 7,100 341 Climbing Albuquerque Center
Tue 04:09:03 PM 32.1967 -111.2939 275° West 112 129 7,400 341 Climbing Albuquerque Center
Tue 04:10:05 PM 32.2044 -111.3269 286° West 108 124 7,800 339 Climbing Albuquerque Center
Tue 04:11:07 PM 32.2172 -111.3592 295° West 108 124 8,100 341 Climbing Albuquerque Center
Tue 04:12:08 PM 32.2314 -111.3897 299° West 107 123 8,500 293 Climbing Albuquerque Center
Tue 04:13:10 PM 32.2436 -111.4292 290° West 109 125 8,700 194 Climbing Albuquerque Center
Tue 04:14:12 PM 32.2500 -111.4642 282° West 110 127 8,900 244 Climbing Albuquerque Center
Tue 04:15:13 PM 32.2617 -111.4981 292° West 110 127 9,200 244 Climbing Albuquerque Center
Tue 04:16:15 PM 32.2678 -111.5344 281° West 112 129 9,400 194 Climbing Albuquerque Center
Tue 04:17:17 PM 32.2744 -111.5708 282° West 113 130 9,600 242 Climbing Albuquerque Center
Tue 04:18:19 PM 32.2872 -111.6081 292° West 109 125 9,900 244 Climbing Albuquerque Center
Tue 04:19:20 PM 32.2969 -111.6428 288° West 112 129 10,100 146 Climbing Albuquerque Center
Tue 04:20:22 PM 32.3086 -111.6756 293° West 110 127 10,200 145 Climbing Albuquerque Center
Tue 04:21:24 PM 32.3236 -111.7056 301° West 107 123 10,400 98 Climbing Albuquerque Center
Tue 04:22:25 PM 32.3525 -111.7136 347° North 104 120 10,400  Level Albuquerque Center
Tue 04:23:27 PM 32.3875 -111.7167 356° North 113 130 10,400 48 Level Albuquerque Center
Tue 04:24:29 PM 32.4200 -111.7194 356° North 117 135 10,500  Climbing Albuquerque Center
Tue 04:25:30 PM 32.4442 -111.7419 322° Northwest 116 133 10,400 -49 Descending Albuquerque Center
Tue 04:26:32 PM 32.4619 -111.7717 305° West 112 129 10,400  Level Albuquerque Center
Tue 04:27:34 PM 32.4828 -111.8019 309° West 115 132 10,400 -49 Level Albuquerque Center
Tue 04:28:35 PM 32.5061 -111.8375 308° West 114 131 10,300 -49 Descending Albuquerque Center
Tue 04:29:37 PM 32.5256 -111.8678 307° West 115 132 10,300 146 Level Albuquerque Center
Tue 04:30:38 PM 32.5444 -111.8953 309° West 110 127 10,600 145 Climbing Albuquerque Center
Tue 04:31:41 PM 32.5622 -111.9219 308° West 104 120 10,600  Level Albuquerque Center
Tue 04:32:42 PM 32.5814 -111.9536 306° West 113 130 10,600  Level Albuquerque Center
Tue 04:33:43 PM 32.6003 -111.9856 305° West 117 135 10,600 -49 Level Albuquerque Center
Tue 04:34:45 PM 32.6206 -112.0183 306° West 121 139 10,500 -293 Descending Albuquerque Center
Tue 04:35:46 PM 32.6408 -112.0494 308° West 119 137 10,000 -683 Descending Albuquerque Center
Tue 04:36:48 PM 32.6703 -112.0992 305° West 145 167 9,100 -732 Descending Albuquerque Center
Tue 04:37:49 PM 32.6942 -112.1319 311° West 138 159 8,500 -341 Descending Albuquerque Center
Tue 04:38:51 PM 32.7200 -112.1656 312° West 137 158 8,400  Descending Albuquerque Center
Tue 04:40:00 PM 32.7353 -112.2039 301° West  Level FlightAware Approximate
Tue 04:40:47 PM 32.7625 -112.2242 301° West 110 127 8,500  Level Albuquerque Center
Tue 04:41:23 PM 32.7761 -112.2408 314° West 112 129 8,400  Descending Albuquerque Center
Tue 04:42:24 PM 32.7961 -112.2686 311° West 113 130 8,500  Climbing Albuquerque Center
Tue 04:43:25 PM 32.8078 -112.3089 289° West 121 139 8,400 -50 Descending Albuquerque Center
Tue 04:44:25 PM 32.8183 -112.3439 290° West 112 129 8,400  Level Albuquerque Center
Tue 04:45:13 PM 32.8300 -112.3658 302° West 116 133 8,400  Level Albuquerque Center
Tue 04:46:15 PM 32.8472 -112.4011 300° West 120 138 8,400 49 Level Albuquerque Center
Tue 04:47:16 PM 32.8597 -112.4386 292° West 122 140 8,500 49 Climbing Albuquerque Center
Tue 04:48:18 PM 32.8761 -112.4819 294° West 120 138 8,500  Level Albuquerque Center
Tue 04:49:29 PM 32.8914 -112.5253 293° West 121 139 8,500 -49 Level Albuquerque Center
Tue 04:50:21 PM 32.9058 -112.5542 301° West 124 143 8,400 -53 Descending Albuquerque Center
Tue 04:51:23 PM 32.9194 -112.5917 293° West 124 143 8,400  Level Albuquerque Center
Tue 04:52:24 PM 32.9347 -112.6275 297° West 122 140 8,400 49 Level Albuquerque Center
Tue 04:53:26 PM 32.9472 -112.6642 292° West 121 139 8,500 49 Climbing Albuquerque Center
Tue 04:54:27 PM 32.9611 -112.7003 295° West 121 139 8,500  Level Albuquerque Center
Tue 04:55:33 PM 32.9661 -112.7547 276° West 125 144 8,500 -48 Level Albuquerque Center
Tue 04:56:31 PM 32.9719 -112.7906 281° West 126 145 8,400  Descending Albuquerque Center
Tue 04:57:32 PM 32.9819 -112.8258 289° West 118 136 8,500  Climbing Albuquerque Center
Tue 04:58:34 PM 32.9867 -112.8644 278° West 116 133 8,400 -49 Descending Albuquerque Center
Tue 04:59:35 PM 32.9917 -112.9069 278° West 125 144 8,400  Level Albuquerque Center
Tue 05:00:37 PM 33.0072 -112.9442 296° West 125 144 8,400  Level Albuquerque Center
Tue 05:01:39 PM 33.0297 -112.9744 312° West 123 142 8,400 -49 Level Albuquerque Center
Tue 05:02:40 PM 33.0636 -113.0044 323° Northwest 126 145 8,300 -49 Descending Albuquerque Center
Tue 05:03:42 PM 33.0864 -113.0350 312° West 125 144 8,300  Level Albuquerque Center
Tue 05:04:43 PM 33.1072 -113.0667 308° West 121 139 8,300  Level Albuquerque Center
Tue 05:05:45 PM 33.1283 -113.0964 310° West 119 137 8,300  Level Albuquerque Center
Tue 05:06:46 PM 33.1494 -113.1278 309° West 121 139 8,300  Level Albuquerque Center
Tue 05:07:48 PM 33.1711 -113.1597 309° West 123 142 8,300 49 Level Albuquerque Center
Tue 05:08:49 PM 33.1919 -113.1900 309° West 119 137 8,400  Climbing Albuquerque Center
Tue 05:09:51 PM 33.2186 -113.2308 308° West 126 145 8,300 -49 Descending Albuquerque Center
Tue 05:10:52 PM 33.2397 -113.2628 308° West 126 145 8,300  Level Albuquerque Center
Tue 05:11:54 PM 33.2631 -113.2931 313° West 124 143 8,300  Level Albuquerque Center
Tue 05:12:55 PM 33.2836 -113.3281 305° West 129 148 8,300  Level Albuquerque Center
Tue 05:13:57 PM 33.2956 -113.3664 290° West 125 144 8,300  Level Albuquerque Center
Tue 05:14:58 PM 33.3092 -113.4025 294° West 121 139 8,300  Level Albuquerque Center
Tue 05:16:00 PM 33.3228 -113.4414 293° West 125 144 8,300  Level Albuquerque Center
Tue 05:17:02 PM 33.3386 -113.4808 296° West 130 150 8,300  Level Albuquerque Center
Tue 05:18:03 PM 33.3536 -113.5269 291° West 125 144 8,300 49 Level Albuquerque Center
Tue 05:19:05 PM 33.3644 -113.5669 288° West 126 145 8,400 49 Climbing Albuquerque Center
Tue 05:20:06 PM 33.3769 -113.6042 292° West 122 140 8,400 -49 Level Albuquerque Center
Tue 05:21:08 PM 33.3903 -113.6397 294° West 119 137 8,300 -49 Descending Albuquerque Center
Tue 05:22:09 PM 33.4025 -113.6783 291° West 121 139 8,300 49 Level Albuquerque Center
Tue 05:23:11 PM 33.4114 -113.7183 285° West 123 142 8,400  Climbing Albuquerque Center
Tue 05:24:12 PM 33.4189 -113.7606 282° West 125 144 8,300 -49 Descending Albuquerque Center
Tue 05:25:14 PM 33.4278 -113.8086 283° West 125 144 8,300  Level Albuquerque Center
Tue 05:26:16 PM 33.4381 -113.8472 288° West 124 143 8,300  Level Albuquerque Center
Tue 05:27:17 PM 33.4486 -113.8878 287° West 126 145 8,300  Level Albuquerque Center
Tue 05:28:19 PM 33.4592 -113.9283 287° West 127 146 8,300  Level Albuquerque Center
Tue 05:29:20 PM 33.4689 -113.9692 286° West 127 146 8,300  Level Albuquerque Center
Tue 05:30:22 PM 33.4794 -114.0114 287° West 129 148 8,300  Level Albuquerque Center
Tue 05:31:23 PM 33.4892 -114.0517 286° West 129 148 8,300  Level Albuquerque Center
Tue 05:32:25 PM 33.4986 -114.0928 285° West 128 147 8,300  Level Albuquerque Center
Tue 05:33:27 PM 33.5075 -114.1425 282° West 127 146 8,300  Level Albuquerque Center
Tue 05:34:28 PM 33.5133 -114.1844 279° West 127 146 8,300  Level Albuquerque Center
Tue 05:35:30 PM 33.5203 -114.2239 282° West 125 144 8,300  Level Albuquerque Center
Tue 05:36:31 PM 33.5267 -114.2633 281° West 122 140 8,300 49 Level Albuquerque Center
Tue 05:37:33 PM 33.5342 -114.3050 282° West 125 144 8,400  Climbing Albuquerque Center
Tue 05:38:35 PM 33.5406 -114.3475 280° West 126 145 8,300 -49 Descending Albuquerque Center
Tue 05:39:36 PM 33.5478 -114.3878 282° West 128 147 8,300  Level Albuquerque Center
Tue 05:40:30 PM 33.5567 -114.4308 284° West 126 145 8,300  Level Los Angeles Center
Tue 05:41:32 PM 33.5628 -114.4739 280° West 131 151 8,300  Level Los Angeles Center
Tue 05:42:34 PM 33.5692 -114.5136 281° West 124 143 8,300  Level Los Angeles Center
Tue 05:43:36 PM 33.5783 -114.5567 284° West 133 153 8,300  Level Los Angeles Center
Tue 05:44:38 PM 33.5842 -114.5994 279° West 132 152 8,300  Level Los Angeles Center
Tue 05:45:41 PM 33.5928 -114.6528 281° West 134 154 8,300  Level Los Angeles Center
Tue 05:46:43 PM 33.5914 -114.6953 268° West 130 150 8,300  Level Los Angeles Center
Tue 05:47:45 PM 33.5944 -114.7383 275° West 129 148 8,300  Level Los Angeles Center
Tue 05:48:47 PM 33.5989 -114.7797 277° West 127 146 8,300  Level Los Angeles Center
Tue 05:49:49 PM 33.6003 -114.8233 272° West 130 150 8,300  Level Los Angeles Center
Tue 05:50:51 PM 33.6056 -114.8714 278° West 129 148 8,300  Level Los Angeles Center
Tue 05:51:52 PM 33.6067 -114.9067 272° West 125 144 8,300  Level Los Angeles Center
Tue 05:52:55 PM 33.6106 -114.9553 276° West 128 147 8,300  Level Los Angeles Center
Tue 05:53:57 PM 33.6150 -114.9997 277° West 128 147 8,300  Level Los Angeles Center
Tue 05:54:59 PM 33.6167 -115.0433 273° West 130 150 8,300  Level Los Angeles Center
Tue 05:56:01 PM 33.6208 -115.0881 276° West 134 154 8,300  Level Los Angeles Center
Tue 05:57:02 PM 33.6231 -115.1308 274° West 131 151 8,300  Level Los Angeles Center
Tue 05:58:04 PM 33.6258 -115.1814 274° West 128 147 8,300 145 Level Los Angeles Center
Tue 05:59:06 PM 33.6289 -115.2231 275° West 127 146 8,600 144 Climbing Los Angeles Center
Tue 06:00:09 PM 33.6308 -115.2642 273° West 125 144 8,600  Level Los Angeles Center
Tue 06:01:11 PM 33.6356 -115.3089 277° West 129 148 8,600  Level Los Angeles Center
Tue 06:02:13 PM 33.6375 -115.3517 273° West 130 150 8,600  Level Los Angeles Center
Tue 06:03:14 PM 33.6400 -115.3950 274° West 130 150 8,600  Level Los Angeles Center
Tue 06:04:16 PM 33.6436 -115.4475 275° West 131 151 8,600  Level Los Angeles Center
Tue 06:05:18 PM 33.6469 -115.4911 275° West 131 151 8,600  Level Los Angeles Center
Tue 06:06:20 PM 33.6494 -115.5328 274° West 129 148 8,600 -48 Level Los Angeles Center
Tue 06:07:22 PM 33.6525 -115.5750 275° West 128 147 8,500 -48 Descending Los Angeles Center
Tue 06:08:24 PM 33.6553 -115.6194 274° West 130 150 8,500  Level Los Angeles Center
Tue 06:09:26 PM 33.6581 -115.6639 274° West 132 152 8,500  Level Los Angeles Center
Tue 06:10:39 PM 33.6611 -115.7172 274° West 133 153 8,500 265 Level Los Angeles Center
Tue 06:11:42 PM 33.6647 -115.7661 275° West 129 148 9,100 480 Climbing Los Angeles Center
Tue 06:12:44 PM 33.6667 -115.8003 274° West 119 137 9,500 439 Climbing Los Angeles Center
Tue 06:13:45 PM 33.6689 -115.8336 275° West 110 127 10,000 439 Climbing Los Angeles Center
Tue 06:14:47 PM 33.6711 -115.8672 275° West 104 120 10,400 242 Climbing Los Angeles Center
Tue 06:15:49 PM 33.6722 -115.9028 272° West 106 122 10,500 48 Climbing Los Angeles Center
Tue 06:16:51 PM 33.6767 -115.9558 276° West 128 147 10,500  Level Los Angeles Center
Tue 06:17:53 PM 33.6811 -116.0003 277° West 133 153 10,500  Level Los Angeles Center
Tue 06:18:55 PM 33.6942 -116.0419 291° West 134 154 10,500  Level Los Angeles Center
Tue 06:19:57 PM 33.7158 -116.0775 306° West 135 155 10,500  Level Los Angeles Center
Tue 06:21:10 PM 33.7189 -116.1203 275° West 131 151 10,500  Level Los Angeles Center
Tue 06:22:13 PM 33.7256 -116.1742 278° West 134 154 10,500  Level Los Angeles Center
Tue 06:23:14 PM 33.7350 -116.2264 282° West 134 154 10,500  Level Los Angeles Center
Tue 06:24:16 PM 33.7483 -116.2675 291° West 133 153 10,500  Level Los Angeles Center
Tue 06:25:18 PM 33.7622 -116.3081 292° West 133 153 10,500  Level Los Angeles Center
Tue 06:26:20 PM 33.7758 -116.3489 292° West 133 153 10,500  Level Los Angeles Center
Tue 06:27:22 PM 33.7875 -116.3900 289° West 131 151 10,500  Level Los Angeles Center
Tue 06:28:24 PM 33.8006 -116.4317 291° West 132 152 10,500  Level Los Angeles Center
Tue 06:29:26 PM 33.8169 -116.4814 292° West 133 153 10,500  Level Los Angeles Center
Tue 06:30:28 PM 33.8300 -116.5228 291° West 133 153 10,500  Level Los Angeles Center
Tue 06:31:30 PM 33.8431 -116.5631 291° West 132 152 10,500  Level Los Angeles Center
Tue 06:32:32 PM 33.8564 -116.6053 291° West 134 154 10,500 97 Level Los Angeles Center
Tue 06:33:34 PM 33.8711 -116.6467 293° West 134 154 10,700 97 Climbing Los Angeles Center
Tue 06:34:36 PM 33.8850 -116.6892 291° West 137 158 10,700  Level Los Angeles Center
Tue 06:35:37 PM 33.8969 -116.7403 286° West 135 155 10,700  Level Los Angeles Center
Tue 06:36:39 PM 33.8925 -116.7886 264° West 142 163 10,700  Level Los Angeles Center
Tue 06:37:41 PM 33.8928 -116.8336 270° West 139 160 10,700  Level Los Angeles Center
Tue 06:38:42 PM 33.9000 -116.8833 280° West 136 157 10,700  Level Southern California TRACON
Tue 06:39:48 PM 33.9000 -116.9333 270° West 137 158 10,700  Level Southern California TRACON
Tue 06:40:48 PM 33.9000 -116.9833 270° West 136 157 10,700 -100 Level Southern California TRACON
Tue 06:41:48 PM 33.9000 -117.0333 270° West 143 165 10,500 -50 Descending Southern California TRACON
Tue 06:42:48 PM 33.9000 -117.0667 270° West 137 158 10,600  Climbing Southern California TRACON
Tue 06:43:48 PM 33.9000 -117.1167 270° West 137 158 10,500 -50 Descending Southern California TRACON
Tue 06:44:49 PM 33.9000 -117.1667 270° West 140 161 10,500  Level Southern California TRACON
Tue 06:45:49 PM 33.9000 -117.2167 270° West 139 160 10,500  Level Southern California TRACON
Tue 06:46:49 PM 33.9000 -117.2500 270° West 138 159 10,500  Level Southern California TRACON
Tue 06:47:49 PM 33.9000 -117.3000 270° West 139 160 10,500 -248 Level Southern California TRACON
Tue 06:48:50 PM 33.9167 -117.3500 292° West 157 181 10,000 -545 Descending Southern California TRACON
Tue 06:49:50 PM 33.9167 -117.4000 270° West 155 178 9,400 -600 Descending Southern California TRACON
Tue 06:50:50 PM 33.9167 -117.4500 270° West 153 176 8,800 -600 Descending Southern California TRACON
Tue 06:51:50 PM 33.9167 -117.5000 270° West 151 174 8,200 -600 Descending Southern California TRACON
Tue 06:52:50 PM 33.9167 -117.5500 270° West 153 176 7,600 -600 Descending Southern California TRACON
Tue 06:53:50 PM 33.9000 -117.6000 248° West 150 173 7,000 -600 Descending Southern California TRACON
Tue 06:54:50 PM 33.9000 -117.6500 270° West 145 167 6,400 -550 Descending Southern California TRACON
Tue 06:55:50 PM 33.8833 -117.7000 248° West 145 167 5,900 -595 Descending Southern California TRACON
Tue 06:56:51 PM 33.8833 -117.7500 270° West 145 167 5,200 -694 Descending Southern California TRACON
Tue 06:57:51 PM 33.8833 -117.8000 270° West 142 163 4,500 -350 Descending Southern California TRACON
Tue 06:58:51 PM 33.8667 -117.8333 239° Southwest 124 143 4,500  Level Southern California TRACON
Tue 06:59:45 PM 33.8667 -117.8667 270° West 122 140 4,500  Level Southern California TRACON
Tue 07:00:51 PM 33.8667 -117.9167 270° West 125 144 4,500  Level Southern California TRACON
Tue 07:01:51 PM 33.8333 -117.9500 220° Southwest 128 147 4,500  Level Southern California TRACON
Tue 07:02:45 PM 33.8167 -117.9833 239° Southwest 123 142 4,500 -105 Level Southern California TRACON
Tue 07:03:45 PM 33.7833 -118.0167 220° Southwest 132 152 4,300 -248 Descending Southern California TRACON
Tue 07:04:46 PM 33.7667 -118.0500 239° Southwest 123 142 4,000 -446 Descending Southern California TRACON
Tue 07:05:46 PM 33.7500 -118.0833 239° Southwest 138 159 3,400 -700 Descending Southern California TRACON
Tue 07:06:46 PM 33.7333 -118.1333 248° West 139 160 2,600 -700 Descending Southern California TRACON
Tue 07:07:46 PM 33.7050 -118.1617 220° Southwest 139 160 2,000 -344 Descending Los Angeles Center
Tue 07:08:48 PM 33.7197 -118.2022 294° West 136 157 1,900  Descending Los Angeles Center
Tue 07:10:01 PM 33.7389 -118.2406 301° West 135 155 2,000 -176 Climbing Los Angeles Center
Tue 07:11:04 PM 33.7639 -118.2792 308° West 128 147 1,500 -629 Descending Los Angeles Center
Tue 07:12:05 PM 33.7839 -118.3097 308° West 112 129 700 -622 Descending Los Angeles Center
Tue 07:13:19 PM 33.7997 -118.3322 310° West 94 108 100 -486 Descending Los Angeles Center
Tue 07:15:00 PM 33.8000 -118.3333 270° West  Level FlightAware Approximate

Login

Don't have an account? Register now (free) for customized features, flight alerts, and more!